LFSB/MLH METAR and TAF weather

Enter ICAO airport designator
Station Type Date Time Source
LFSB METAR 2020/04/09 19:00 UTC NOAA

LFSB 091900Z AUTO 34005KT 320V030 CAVOK 18/04 Q1022 NOSIG


Station Type Date Time Source
LFSB Decoded METAR 2020/04/09 19:00 UTC NOAA

Bale-Mulhouse, France (LFSB) 47-36N 007-31E 271M
Apr 09, 2020 - 03:00 PM EDT / 2020.04.09 1900 UTC
Wind: from the NNW (340 degrees) at 6 MPH (5 KT) (direction variable):0
Visibility: greater than 7 mile(s):0
Temperature: 64 F (18 C)
Dew Point: 39 F (4 C)
Relative Humidity: 39%
Pressure (altimeter): 30.18 in. Hg (1022 hPa)
ob: LFSB 091900Z AUTO 34005KT 320V030 CAVOK 18/04 Q1022 NOSIG
cycle: 19

Station Type Date Time Source
LFSB TAF 2020/04/09 18:21 UTC NOAA

TAF LFSB 091700Z 0918/1018 35008KT CAVOK
BECMG 0918/0920 VRB03KT
TEMPO 1012/1018 36006KT

Example: see airport list